createdAt,value
2018-06-22T00:00:55.840Z,26.20
2018-06-22T00:03:31.101Z,27.40
2018-06-22T00:06:14.912Z,28.30
2018-06-22T00:08:55.909Z,30.90
2018-06-22T00:11:38.508Z,30.10
2018-06-22T00:14:14.454Z,30.10
2018-06-22T00:17:14.245Z,31.80
2018-06-22T00:19:56.178Z,30.50
2018-06-22T00:22:38.171Z,31.50
2018-06-22T00:25:18.620Z,31.40
2018-06-22T00:27:54.201Z,30.30
2018-06-22T00:30:33.378Z,30.30
2018-06-22T00:33:11.689Z,29.40
2018-06-22T00:35:48.978Z,29.30
2018-06-22T00:43:47.852Z,30.70
2018-06-22T00:46:26.467Z,31.40
2018-06-22T00:49:07.116Z,31.80
2018-06-22T00:51:44.791Z,31.50
2018-06-22T00:54:22.633Z,31.70
2018-06-22T00:57:02.859Z,31.10
2018-06-22T00:59:38.430Z,30.40
2018-06-22T01:02:13.297Z,29.80
2018-06-22T01:04:49.193Z,29.10
2018-06-22T01:07:27.217Z,29.50
2018-06-22T01:12:39.881Z,29.10
2018-06-22T01:15:15.274Z,28.40
2018-06-22T01:17:51.360Z,28.10
2018-06-22T01:20:28.806Z,28.30
2018-06-22T01:23:05.274Z,28.20
2018-06-22T01:28:18.772Z,28.80
2018-06-22T01:30:57.272Z,28.50
2018-06-22T01:33:37.934Z,28.30
2018-06-22T01:36:16.986Z,28.20
2018-06-22T01:38:53.669Z,27.80
2018-06-22T01:41:31.458Z,27.40
2018-06-22T01:44:09.369Z,27.30
2018-06-22T01:46:50.326Z,26.80
2018-06-22T01:49:33.123Z,25.40
2018-06-22T01:52:16.501Z,25.40
2018-06-22T01:54:59.750Z,25.40
2018-06-22T01:57:40.614Z,25.40
2018-06-22T02:00:27.558Z,25.50
2018-06-22T02:03:08.285Z,25.70
2018-06-22T02:05:45.134Z,25.90
2018-06-22T02:08:20.456Z,26.00
2018-06-22T02:10:55.156Z,26.10
2018-06-22T02:13:31.549Z,26.10
2018-06-22T02:16:12.106Z,26.20
2018-06-22T02:18:54.142Z,26.70
2018-06-22T02:21:31.440Z,27.70
2018-06-22T02:24:07.171Z,28.10
2018-06-22T02:26:45.434Z,28.20
2018-06-22T02:29:21.259Z,28.20
2018-06-22T02:32:02.267Z,28.00
2018-06-22T02:37:16.014Z,28.40
2018-06-22T02:39:55.690Z,28.80
2018-06-22T02:42:36.437Z,29.40
2018-06-22T02:45:15.674Z,29.70
2018-06-22T02:47:52.192Z,29.70
2018-06-22T02:50:33.069Z,29.70
2018-06-22T02:53:11.932Z,29.80
2018-06-22T02:55:51.625Z,29.50
2018-06-22T02:58:27.180Z,29.60
2018-06-22T03:04:05.282Z,30.90
2018-06-22T03:06:43.206Z,30.80
2018-06-22T03:09:19.377Z,31.00
2018-06-22T03:11:57.275Z,31.70
2018-06-22T03:14:36.395Z,32.10
2018-06-22T03:17:11.631Z,32.30
2018-06-22T03:19:54.545Z,33.60
2018-06-22T03:22:40.564Z,32.90
2018-06-22T03:25:26.682Z,33.20
2018-06-22T03:28:07.193Z,33.50
2018-06-22T03:30:41.783Z,33.90
2018-06-22T03:33:19.643Z,34.30
2018-06-22T03:36:03.943Z,34.80
2018-06-22T03:38:43.840Z,35.00
2018-06-22T03:44:06.509Z,34.90
2018-06-22T03:46:43.788Z,33.40
2018-06-22T03:49:20.943Z,33.00
2018-06-22T03:52:00.747Z,33.00
2018-06-22T03:54:39.611Z,32.20
2018-06-22T03:57:24.462Z,31.90
2018-06-22T04:00:06.140Z,31.10
2018-06-22T04:06:00.585Z,30.60
2018-06-22T04:08:38.520Z,30.20
2018-06-22T04:11:18.858Z,29.80
2018-06-22T04:13:54.601Z,29.40
2018-06-22T04:16:30.711Z,29.20
2018-06-22T04:19:09.006Z,29.10
2018-06-22T04:21:45.128Z,29.40
2018-06-22T04:24:26.543Z,29.00
2018-06-22T04:27:01.477Z,29.60
2018-06-22T04:29:37.461Z,31.20
2018-06-22T04:32:22.349Z,34.30
2018-06-22T04:35:04.050Z,35.40
2018-06-22T04:37:38.674Z,39.00
2018-06-22T04:40:19.398Z,37.40
2018-06-22T04:42:56.399Z,38.30
2018-06-22T04:45:31.352Z,41.10
2018-06-22T04:48:07.230Z,40.90
2018-06-22T04:50:45.113Z,41.50
2018-06-22T04:53:28.295Z,41.10
2018-06-22T04:56:05.687Z,45.40
2018-06-22T04:58:42.401Z,46.80
2018-06-22T05:01:32.489Z,48.90
2018-06-22T05:04:07.424Z,52.40
2018-06-22T05:06:44.829Z,54.50
2018-06-22T05:09:22.360Z,56.60
2018-06-22T05:12:04.332Z,60.10
2018-06-22T05:14:39.677Z,63.00
2018-06-22T05:17:23.583Z,65.80
2018-06-22T05:20:02.115Z,68.50
2018-06-22T05:22:41.254Z,70.70
2018-06-22T05:27:59.717Z,73.80
2018-06-22T05:33:19.854Z,74.30
2018-06-22T05:35:56.843Z,76.30
2018-06-22T05:38:36.978Z,75.80
2018-06-22T05:41:12.038Z,76.30
2018-06-22T05:43:47.120Z,76.30
2018-06-22T05:46:21.712Z,77.50
2018-06-22T05:48:56.231Z,77.20
2018-06-22T05:51:31.580Z,76.30
2018-06-22T05:54:07.214Z,77.70
2018-06-22T05:56:41.602Z,74.70
2018-06-22T05:59:20.145Z,75.80
2018-06-22T06:01:54.596Z,76.70
2018-06-22T06:04:29.167Z,76.20
2018-06-22T06:07:04.104Z,76.20
2018-06-22T06:09:38.356Z,72.10
2018-06-22T06:12:12.789Z,74.20
2018-06-22T06:14:47.738Z,74.60
2018-06-22T06:17:22.260Z,72.70
2018-06-22T06:19:57.935Z,73.70
2018-06-22T06:22:33.270Z,73.30
2018-06-22T06:25:08.984Z,75.20
2018-06-22T06:27:44.113Z,73.50
2018-06-22T06:30:18.459Z,76.10
2018-06-22T06:32:52.714Z,77.60
2018-06-22T06:35:27.249Z,76.10
2018-06-22T06:38:01.806Z,76.10
2018-06-22T06:40:37.321Z,74.80
2018-06-22T06:43:13.300Z,72.50
2018-06-22T06:45:47.682Z,74.80
2018-06-22T06:48:21.983Z,75.10
2018-06-22T06:50:57.318Z,70.60
2018-06-22T06:53:33.955Z,75.60
2018-06-22T06:56:10.925Z,76.20
2018-06-22T06:58:46.688Z,76.30
2018-06-22T07:01:21.326Z,71.10
2018-06-22T07:03:56.904Z,73.90
2018-06-22T07:06:31.333Z,73.20
2018-06-22T07:09:10.779Z,72.40
2018-06-22T07:11:46.820Z,72.70
2018-06-22T07:14:21.412Z,69.60
2018-06-22T07:16:55.879Z,67.10
2018-06-22T07:19:31.816Z,70.00
2018-06-22T07:22:06.271Z,69.40
2018-06-22T07:24:43.097Z,66.90
2018-06-22T07:27:19.504Z,64.30
2018-06-22T07:32:28.565Z,63.20
2018-06-22T07:35:04.201Z,61.20
2018-06-22T07:37:39.347Z,61.60
2018-06-22T07:40:14.427Z,48.50
2018-06-22T07:42:48.788Z,54.10
2018-06-22T07:45:25.345Z,55.50
2018-06-22T07:48:00.633Z,44.40
2018-06-22T07:50:36.121Z,48.80
2018-06-22T07:53:11.678Z,48.40
2018-06-22T07:55:47.757Z,50.80
2018-06-22T07:58:25.360Z,46.80
2018-06-22T08:01:00.185Z,47.60
2018-06-22T08:03:34.785Z,43.40
2018-06-22T08:06:10.095Z,43.30
2018-06-22T08:08:45.384Z,37.70
2018-06-22T08:11:19.725Z,34.40
2018-06-22T08:13:55.056Z,37.00
2018-06-22T08:16:29.901Z,34.80
2018-06-22T08:19:04.819Z,37.60
2018-06-22T08:21:40.010Z,34.50
2018-06-22T08:24:15.879Z,29.40
2018-06-22T08:26:51.140Z,28.70
2018-06-22T08:29:25.457Z,28.80
2018-06-22T08:32:00.089Z,27.00
2018-06-22T08:37:09.654Z,24.50
2018-06-22T08:39:43.952Z,22.40
2018-06-22T08:42:18.533Z,22.20
2018-06-22T08:44:54.131Z,26.20
2018-06-22T08:47:28.768Z,39.50
2018-06-22T08:50:04.025Z,44.70
2018-06-22T08:52:39.205Z,44.60
2018-06-22T08:57:49.223Z,30.50
2018-06-22T09:00:23.469Z,32.30
2018-06-22T09:02:58.351Z,27.40
2018-06-22T09:08:07.439Z,21.60
2018-06-22T09:10:42.216Z,21.30
2018-06-22T09:16:16.303Z,21.20
2018-06-22T09:18:51.070Z,16.80
2018-06-22T09:21:25.748Z,13.70
2018-06-22T09:24:00.145Z,17.20
2018-06-22T09:26:34.506Z,13.10
2018-06-22T09:29:09.466Z,15.00
2018-06-22T09:31:43.906Z,15.00
2018-06-22T09:34:20.197Z,14.90
2018-06-22T09:36:54.705Z,14.80
2018-06-22T09:39:29.614Z,12.30
2018-06-22T09:42:05.282Z,11.60
2018-06-22T09:44:44.470Z,10.00
2018-06-22T09:47:18.672Z,9.10
2018-06-22T09:49:58.526Z,7.70
2018-06-22T09:52:32.914Z,7.80
2018-06-22T09:55:08.409Z,7.40
2018-06-22T09:57:45.963Z,8.10
2018-06-22T10:00:21.311Z,5.90
2018-06-22T10:02:57.029Z,6.20
2018-06-22T10:08:07.582Z,5.10
2018-06-22T10:10:45.903Z,2.30
2018-06-22T10:13:21.456Z,1.00
2018-06-22T10:16:02.825Z,1.00
2018-06-22T10:18:39.805Z,1.00
2018-06-22T10:21:23.642Z,1.30
2018-06-22T10:24:04.011Z,2.00
2018-06-22T10:26:42.029Z,1.00
2018-06-22T10:29:28.875Z,1.00
2018-06-22T10:32:03.749Z,1.00
2018-06-22T10:34:39.156Z,1.00
2018-06-22T10:37:15.710Z,1.00
2018-06-22T10:39:51.356Z,1.00
2018-06-22T10:42:26.632Z,1.00
2018-06-22T10:45:01.633Z,1.00
2018-06-22T10:47:36.800Z,1.00
2018-06-22T10:50:11.781Z,1.40
2018-06-22T10:52:47.613Z,1.50
2018-06-22T10:55:23.656Z,1.40
2018-06-22T10:58:07.374Z,1.00
2018-06-22T11:00:43.045Z,1.00
2018-06-22T11:03:28.244Z,1.00
2018-06-22T11:06:19.616Z,1.00
2018-06-22T11:09:11.650Z,1.00
2018-06-22T11:11:58.319Z,1.00
2018-06-22T11:14:39.283Z,1.00
2018-06-22T11:17:20.457Z,1.00
2018-06-22T11:20:02.693Z,1.00
2018-06-22T11:22:40.522Z,1.00
2018-06-22T11:25:18.442Z,1.00
2018-06-22T11:28:01.414Z,1.90
2018-06-22T11:30:44.809Z,2.60
2018-06-22T11:33:25.055Z,4.10
2018-06-22T11:36:12.495Z,2.40
2018-06-22T11:38:51.064Z,1.00
2018-06-22T11:44:30.049Z,1.00
2018-06-22T11:47:20.028Z,1.00
2018-06-22T11:50:07.251Z,1.00
2018-06-22T11:52:53.805Z,1.00
2018-06-22T11:55:46.572Z,1.00
2018-06-22T11:58:27.612Z,1.00
2018-06-22T12:01:13.144Z,1.00
2018-06-22T12:04:08.396Z,1.00
2018-06-22T12:07:05.178Z,1.00
2018-06-22T12:09:40.437Z,1.00
2018-06-22T12:12:16.548Z,1.00
2018-06-22T12:14:56.055Z,1.00
2018-06-22T12:17:31.339Z,1.00
2018-06-22T12:20:12.411Z,1.00
2018-06-22T12:22:54.161Z,1.00
2018-06-22T12:25:30.291Z,1.00
2018-06-22T12:28:07.091Z,1.00
2018-06-22T12:30:46.313Z,2.80
2018-06-22T12:33:20.718Z,1.00
2018-06-22T12:36:00.176Z,1.00
2018-06-22T12:38:34.992Z,1.00
2018-06-22T12:41:10.933Z,1.00
2018-06-22T12:43:47.371Z,1.00
2018-06-22T12:49:07.181Z,1.00
2018-06-22T12:51:43.828Z,1.00
2018-06-22T12:54:35.016Z,1.00
2018-06-22T12:57:32.272Z,1.00
2018-06-22T13:06:00.634Z,1.00
2018-06-22T13:08:36.965Z,1.00
2018-06-22T13:11:15.368Z,1.00
2018-06-22T13:14:03.686Z,1.00
2018-06-22T13:22:51.641Z,1.00
2018-06-22T13:25:39.844Z,1.00
2018-06-22T13:28:20.578Z,1.00
2018-06-22T13:31:03.142Z,1.00
2018-06-22T13:33:51.123Z,1.00
2018-06-22T13:36:33.895Z,1.00
2018-06-22T13:39:21.841Z,1.00
2018-06-22T13:42:01.085Z,1.00
2018-06-22T13:44:36.503Z,1.00
2018-06-22T13:47:11.145Z,1.00
2018-06-22T13:49:46.339Z,1.00
2018-06-22T13:52:26.074Z,1.00
2018-06-22T13:55:01.463Z,1.00
2018-06-22T13:57:39.898Z,1.00
2018-06-22T14:00:17.411Z,1.00
2018-06-22T14:03:07.493Z,1.00
2018-06-22T14:05:57.648Z,1.00
2018-06-22T14:11:42.440Z,1.00
2018-06-22T14:14:27.975Z,1.00
2018-06-22T14:17:07.898Z,1.00
2018-06-22T14:19:48.780Z,1.00
2018-06-22T14:22:23.988Z,1.00
2018-06-22T14:25:08.743Z,1.00
2018-06-22T14:27:44.328Z,1.00
2018-06-22T14:30:18.947Z,1.00
2018-06-22T14:32:54.797Z,1.00
2018-06-22T14:35:31.261Z,1.00
2018-06-22T14:38:08.457Z,1.00
2018-06-22T14:40:46.265Z,1.00
2018-06-22T14:43:22.781Z,1.00
2018-06-22T14:46:00.230Z,1.00
2018-06-22T14:48:41.485Z,1.00
2018-06-22T14:51:25.532Z,1.00
2018-06-22T14:54:07.633Z,1.00
2018-06-22T14:59:30.599Z,1.00
2018-06-22T15:02:11.473Z,1.00
2018-06-22T15:04:53.780Z,1.00
2018-06-22T15:07:36.164Z,1.00
2018-06-22T15:10:13.955Z,1.00
2018-06-22T15:17:30.106Z,1.00
2018-06-22T15:20:04.873Z,1.00
2018-06-22T15:22:40.419Z,1.00
2018-06-22T15:25:15.217Z,1.00
2018-06-22T15:27:49.872Z,1.00
2018-06-22T15:30:26.328Z,1.00
2018-06-22T15:33:02.471Z,1.00
2018-06-22T15:36:44.932Z,1.00
2018-06-22T15:41:26.971Z,1.00
2018-06-22T15:44:06.901Z,1.00
2018-06-22T15:46:46.779Z,1.00
2018-06-22T15:49:26.957Z,1.00
2018-06-22T15:52:07.149Z,1.00
2018-06-22T15:54:47.355Z,1.00
2018-06-22T15:57:22.192Z,1.00
2018-06-22T15:59:57.038Z,1.00
2018-06-22T16:02:37.049Z,1.00
2018-06-22T16:05:21.171Z,1.00
2018-06-22T16:07:57.093Z,1.00
2018-06-22T16:10:32.717Z,1.00
2018-06-22T16:13:17.461Z,1.00
2018-06-22T16:15:57.404Z,1.00
2018-06-22T16:18:38.366Z,1.00
2018-06-22T16:21:19.219Z,1.00
2018-06-22T16:23:59.202Z,1.00
2018-06-22T16:26:39.196Z,1.00
2018-06-22T16:29:13.709Z,1.00
2018-06-22T16:31:49.497Z,1.00
2018-06-22T16:34:24.149Z,1.00
2018-06-22T16:37:00.620Z,1.00
2018-06-22T16:39:35.734Z,1.00
2018-06-22T16:42:10.708Z,1.00
2018-06-22T16:44:45.291Z,1.00
2018-06-22T16:47:22.356Z,1.00
2018-06-22T16:49:58.293Z,1.00
2018-06-22T16:52:33.486Z,1.00
2018-06-22T16:55:07.984Z,1.00
2018-06-22T16:57:42.769Z,1.00
2018-06-22T17:00:17.160Z,1.00
2018-06-22T17:02:54.400Z,1.00
2018-06-22T17:08:13.295Z,1.00
2018-06-22T17:10:54.595Z,1.00
2018-06-22T17:13:34.228Z,1.00
2018-06-22T17:16:13.993Z,1.00
2018-06-22T17:18:53.648Z,1.00
2018-06-22T17:21:31.742Z,1.00
2018-06-22T17:24:06.090Z,1.00
2018-06-22T17:26:41.006Z,1.00
2018-06-22T17:29:15.605Z,1.00
2018-06-22T17:31:50.147Z,1.00
2018-06-22T17:34:25.262Z,1.00
2018-06-22T17:36:59.879Z,1.00
2018-06-22T17:39:34.313Z,1.00
2018-06-22T17:42:08.861Z,1.00
2018-06-22T17:44:43.312Z,1.00
2018-06-22T17:47:29.550Z,1.00
2018-06-22T17:50:11.453Z,1.00
2018-06-22T17:52:45.989Z,1.00
2018-06-22T17:55:21.469Z,1.00
2018-06-22T18:00:35.565Z,1.00
2018-06-22T18:03:15.430Z,1.00
2018-06-22T18:05:55.503Z,1.00
2018-06-22T18:08:35.407Z,1.00
2018-06-22T18:13:49.820Z,1.00
2018-06-22T18:16:24.547Z,1.00
2018-06-22T18:18:59.330Z,1.00
2018-06-22T18:21:34.710Z,1.00
2018-06-22T18:24:10.112Z,1.00
2018-06-22T18:26:44.421Z,1.00
2018-06-22T18:29:18.992Z,1.00
2018-06-22T18:31:53.795Z,1.00
2018-06-22T18:37:03.814Z,1.00
2018-06-22T18:39:38.270Z,1.00
2018-06-22T18:42:12.694Z,1.00
2018-06-22T18:44:47.313Z,1.00
2018-06-22T18:47:21.665Z,1.00
2018-06-22T18:54:40.808Z,1.00
2018-06-22T18:57:24.970Z,1.00
2018-06-22T19:02:07.667Z,1.00
2018-06-22T19:04:42.208Z,1.00
2018-06-22T19:07:16.929Z,1.00
2018-06-22T19:09:51.457Z,1.00
2018-06-22T19:12:25.990Z,1.00
2018-06-22T19:15:01.498Z,1.00
2018-06-22T19:17:37.105Z,1.00
2018-06-22T19:20:11.917Z,1.00
2018-06-22T19:22:46.653Z,1.00
2018-06-22T19:25:21.108Z,1.00
2018-06-22T19:27:55.563Z,1.00
2018-06-22T19:30:30.141Z,1.00
2018-06-22T19:33:04.633Z,1.00
2018-06-22T19:35:39.332Z,1.00
2018-06-22T19:38:14.002Z,1.00
2018-06-22T19:40:48.425Z,1.00
2018-06-22T19:43:28.338Z,1.00
2018-06-22T19:46:09.329Z,1.00
2018-06-22T19:48:48.892Z,1.00
2018-06-22T19:51:28.615Z,1.00
2018-06-22T19:54:05.483Z,1.00
2018-06-22T19:56:40.005Z,1.00
2018-06-22T19:59:15.249Z,1.00
2018-06-22T20:01:49.614Z,1.00
2018-06-22T20:04:24.266Z,1.00
2018-06-22T20:06:58.996Z,1.00
2018-06-22T20:09:34.390Z,1.00
2018-06-22T20:12:09.962Z,1.00
2018-06-22T20:14:48.328Z,1.00
2018-06-22T20:17:24.292Z,1.00
2018-06-22T20:20:00.234Z,1.00
2018-06-22T20:22:35.896Z,1.00
2018-06-22T20:25:17.681Z,1.00
2018-06-22T20:27:57.467Z,1.00
2018-06-22T20:30:33.463Z,1.00
2018-06-22T20:33:09.184Z,1.00
2018-06-22T20:35:49.200Z,1.00
2018-06-22T20:38:29.039Z,1.00
2018-06-22T20:41:08.868Z,1.00
2018-06-22T20:43:49.065Z,1.00
2018-06-22T20:46:29.407Z,1.00
2018-06-22T20:49:10.284Z,1.00
2018-06-22T20:51:45.941Z,1.00
2018-06-22T20:54:20.861Z,1.00
2018-06-22T20:56:57.129Z,1.00
2018-06-22T20:59:32.524Z,1.00
2018-06-22T21:05:23.241Z,1.00
2018-06-22T21:07:58.829Z,1.00
2018-06-22T21:10:33.575Z,1.00
2018-06-22T21:13:15.489Z,1.00
2018-06-22T21:15:52.460Z,1.00
2018-06-22T21:18:30.660Z,1.10
2018-06-22T21:21:14.696Z,1.60
2018-06-22T21:23:53.966Z,2.10
2018-06-22T21:26:32.546Z,2.70
2018-06-22T21:29:16.201Z,3.30
2018-06-22T21:31:59.556Z,3.90
2018-06-22T21:34:39.671Z,4.40
2018-06-22T21:37:21.883Z,5.00
2018-06-22T21:40:00.074Z,4.90
2018-06-22T21:45:20.542Z,3.30
2018-06-22T21:48:03.509Z,2.90
2018-06-22T21:50:41.366Z,3.20
2018-06-22T21:53:28.817Z,2.50
2018-06-22T21:56:03.967Z,2.90
2018-06-22T21:58:38.305Z,2.90
2018-06-22T22:01:13.518Z,2.90
2018-06-22T22:06:24.026Z,3.50
2018-06-22T22:08:59.628Z,3.80
2018-06-22T22:11:40.241Z,4.00
2018-06-22T22:14:15.256Z,4.70
2018-06-22T22:16:50.548Z,4.70
2018-06-22T22:19:24.917Z,4.70
2018-06-22T22:21:59.898Z,4.60
2018-06-22T22:24:35.399Z,4.60
2018-06-22T22:27:10.405Z,4.60
2018-06-22T22:29:44.818Z,4.90
2018-06-22T22:32:19.957Z,5.10
2018-06-22T22:34:54.474Z,5.30
2018-06-22T22:37:28.719Z,5.40
2018-06-22T22:40:04.386Z,5.50
2018-06-22T22:42:38.835Z,5.60
2018-06-22T22:45:13.180Z,5.80
2018-06-22T22:47:47.496Z,5.60
2018-06-22T22:50:21.819Z,6.00
2018-06-22T22:52:56.344Z,6.20
2018-06-22T22:55:30.652Z,6.60
2018-06-22T22:58:06.616Z,6.90
2018-06-22T23:00:40.845Z,7.70
2018-06-22T23:03:15.257Z,8.70
2018-06-22T23:05:50.281Z,9.00
2018-06-22T23:08:24.748Z,9.40
2018-06-22T23:10:58.964Z,10.10
2018-06-22T23:13:34.197Z,11.00
2018-06-22T23:16:08.494Z,11.70
2018-06-22T23:21:37.870Z,12.30
2018-06-22T23:24:12.956Z,13.30
2018-06-22T23:26:47.796Z,13.80
2018-06-22T23:29:22.289Z,14.90
2018-06-22T23:34:31.019Z,16.20
2018-06-22T23:37:07.175Z,16.60
2018-06-22T23:39:41.627Z,17.10
2018-06-22T23:44:52.515Z,18.60
2018-06-22T23:47:26.950Z,18.90
2018-06-22T23:50:02.984Z,18.90
2018-06-22T23:52:38.241Z,19.00
2018-06-22T23:55:12.572Z,19.80
2018-06-22T23:57:46.918Z,19.90
